createdAt,value
2023-01-28T00:01:32.965Z,12.98
2023-01-28T00:04:00.994Z,17.88
2023-01-28T00:06:28.839Z,15.82
2023-01-28T00:08:56.517Z,10.05
2023-01-28T00:11:24.713Z,20.63
2023-01-28T00:13:55.531Z,16.70
2023-01-28T00:16:23.640Z,12.02
2023-01-28T00:18:52.110Z,12.27
2023-01-28T00:21:19.954Z,16.83
2023-01-28T00:23:55.407Z,11.68
2023-01-28T00:26:24.700Z,14.05
2023-01-28T00:28:52.513Z,9.07
2023-01-28T00:31:22.613Z,12.80
2023-01-28T00:33:51.625Z,10.98
2023-01-28T00:36:21.027Z,8.85
2023-01-28T00:38:53.935Z,7.55
2023-01-28T00:41:23.420Z,8.15
2023-01-28T00:43:52.667Z,6.80
2023-01-28T00:46:22.317Z,7.28
2023-01-28T00:48:50.487Z,6.50
2023-01-28T00:51:20.338Z,8.18
2023-01-28T00:53:50.127Z,3.72
2023-01-28T00:56:19.715Z,6.50
2023-01-28T00:58:47.857Z,8.90
2023-01-28T01:01:18.623Z,6.15
2023-01-28T01:03:47.251Z,6.25
2023-01-28T01:06:15.892Z,7.88
2023-01-28T01:08:50.714Z,3.65
2023-01-28T01:11:19.438Z,5.65
2023-01-28T01:13:52.579Z,4.90
2023-01-28T01:16:20.700Z,4.72
2023-01-28T01:18:50.975Z,5.20
2023-01-28T01:21:21.524Z,5.80
2023-01-28T01:23:49.731Z,3.47
2023-01-28T01:26:20.123Z,10.57
2023-01-28T01:28:48.503Z,6.32
2023-01-28T01:31:18.347Z,5.65
2023-01-28T01:33:48.275Z,15.68
2023-01-28T01:36:18.771Z,13.23
2023-01-28T01:38:47.023Z,20.02
2023-01-28T01:41:29.004Z,21.90
2023-01-28T01:44:04.832Z,30.45
2023-01-28T01:46:40.358Z,26.92
2023-01-28T01:49:16.073Z,23.27
2023-01-28T01:51:44.078Z,20.67
2023-01-28T01:54:12.227Z,21.85
2023-01-28T01:56:42.567Z,18.48
2023-01-28T01:59:13.316Z,19.30
2023-01-28T02:01:41.723Z,22.30
2023-01-28T02:04:14.352Z,18.95
2023-01-28T02:06:43.182Z,17.33
2023-01-28T02:09:23.751Z,12.93
2023-01-28T02:11:53.174Z,15.35
2023-01-28T02:14:30.696Z,12.25
2023-01-28T02:17:00.854Z,13.48
2023-01-28T02:19:38.172Z,11.70
2023-01-28T02:22:34.629Z,14.00
2023-01-28T02:25:26.852Z,10.70
2023-01-28T02:28:17.753Z,12.15
2023-01-28T02:30:51.824Z,12.75
2023-01-28T02:33:46.034Z,12.40
2023-01-28T02:36:40.857Z,7.40
2023-01-28T02:39:16.971Z,10.68
2023-01-28T02:42:10.526Z,9.05
2023-01-28T02:44:40.386Z,8.35
2023-01-28T02:47:30.945Z,6.65
2023-01-28T02:50:04.654Z,12.25
2023-01-28T02:52:53.565Z,7.53
2023-01-28T02:55:47.577Z,6.80
2023-01-28T02:58:59.812Z,6.60
2023-01-28T03:01:38.787Z,8.32
2023-01-28T03:04:12.613Z,5.45
2023-01-28T03:06:48.585Z,5.45
2023-01-28T03:09:28.491Z,5.28
2023-01-28T03:12:41.397Z,6.72
2023-01-28T03:15:35.147Z,7.28
2023-01-28T03:18:25.539Z,4.45
2023-01-28T03:21:32.270Z,4.57
2023-01-28T03:24:30.691Z,2.95
2023-01-28T03:27:32.655Z,5.18
2023-01-28T03:30:41.980Z,4.72
2023-01-28T03:33:36.048Z,4.22
2023-01-28T03:36:22.869Z,5.15
2023-01-28T03:38:50.842Z,5.22
2023-01-28T03:41:26.717Z,3.92
2023-01-28T03:43:56.656Z,3.35
2023-01-28T03:46:24.558Z,4.45
2023-01-28T03:48:52.469Z,2.78
2023-01-28T03:51:20.556Z,3.28
2023-01-28T03:53:48.489Z,2.90
2023-01-28T03:56:18.742Z,3.65
2023-01-28T03:58:53.179Z,3.13
2023-01-28T04:01:21.722Z,2.97
2023-01-28T04:03:50.186Z,3.90
2023-01-28T04:06:29.172Z,2.95
2023-01-28T04:09:15.726Z,3.33
2023-01-28T04:11:51.121Z,3.58
2023-01-28T04:14:26.310Z,3.08
2023-01-28T04:17:04.100Z,4.10
2023-01-28T04:22:10.525Z,2.50
2023-01-28T04:24:39.409Z,2.15
2023-01-28T04:27:07.198Z,2.03
2023-01-28T04:29:35.176Z,5.22
2023-01-28T04:32:22.874Z,4.82
2023-01-28T04:35:11.762Z,4.72
2023-01-28T04:37:58.181Z,2.28
2023-01-28T04:40:51.304Z,2.38
2023-01-28T04:43:27.808Z,7.00
2023-01-28T04:48:43.941Z,2.15
2023-01-28T04:51:30.589Z,2.80
2023-01-28T04:54:17.066Z,5.88
2023-01-28T04:56:45.357Z,3.15
2023-01-28T04:59:13.498Z,2.60
2023-01-28T05:01:42.494Z,2.58
2023-01-28T05:04:10.324Z,2.28
2023-01-28T05:06:39.884Z,2.55
2023-01-28T05:09:11.845Z,2.75
2023-01-28T05:11:40.594Z,3.40
2023-01-28T05:14:09.667Z,3.53
2023-01-28T05:17:00.980Z,4.07
2023-01-28T05:19:29.089Z,1.73
2023-01-28T05:21:58.966Z,1.88
2023-01-28T05:24:46.967Z,3.25
2023-01-28T05:27:15.336Z,2.25
2023-01-28T05:29:43.280Z,1.98
2023-01-28T05:32:11.189Z,3.65
2023-01-28T05:34:38.991Z,2.63
2023-01-28T05:37:14.940Z,3.97
2023-01-28T05:39:42.931Z,3.72
2023-01-28T05:42:11.093Z,2.42
2023-01-28T05:44:44.368Z,2.70
2023-01-28T05:47:38.928Z,1.80
2023-01-28T05:50:21.343Z,3.58
2023-01-28T05:53:08.366Z,1.63
2023-01-28T05:55:38.019Z,2.25
2023-01-28T05:58:06.024Z,1.42
2023-01-28T06:00:34.159Z,1.10
2023-01-28T06:03:04.223Z,2.40
2023-01-28T06:05:32.561Z,1.25
2023-01-28T06:08:02.213Z,1.20
2023-01-28T06:10:30.390Z,1.60
2023-01-28T06:12:58.355Z,1.30
2023-01-28T06:15:44.957Z,1.20
2023-01-28T06:18:39.269Z,1.60
2023-01-28T06:21:07.380Z,2.15
2023-01-28T06:23:35.262Z,1.45
2023-01-28T06:26:07.252Z,4.15
2023-01-28T06:28:36.832Z,2.95
2023-01-28T06:31:05.133Z,0.88
2023-01-28T06:33:32.998Z,2.15
2023-01-28T06:36:04.196Z,3.30
2023-01-28T06:38:32.062Z,3.15
2023-01-28T06:40:59.901Z,3.03
2023-01-28T06:43:28.357Z,4.18
2023-01-28T06:45:59.700Z,2.95
2023-01-28T06:48:28.691Z,1.35
2023-01-28T06:50:56.452Z,0.88
2023-01-28T06:53:24.420Z,3.22
2023-01-28T06:55:52.313Z,7.75
2023-01-28T06:58:20.250Z,1.15
2023-01-28T07:00:48.077Z,2.25
2023-01-28T07:03:16.973Z,2.00
2023-01-28T07:05:44.991Z,1.00
2023-01-28T07:08:12.882Z,2.05
2023-01-28T07:10:40.624Z,1.60
2023-01-28T07:13:08.610Z,1.23
2023-01-28T07:15:36.942Z,1.38
2023-01-28T07:18:04.857Z,4.53
2023-01-28T07:20:32.661Z,1.35
2023-01-28T07:23:00.504Z,1.70
2023-01-28T07:25:28.199Z,1.35
2023-01-28T07:27:55.965Z,0.75
2023-01-28T07:30:24.398Z,3.60
2023-01-28T07:32:56.043Z,1.25
2023-01-28T07:35:24.091Z,1.90
2023-01-28T07:37:53.622Z,0.93
2023-01-28T07:40:22.131Z,1.27
2023-01-28T07:42:50.177Z,2.92
2023-01-28T07:45:23.689Z,0.65
2023-01-28T07:47:58.921Z,1.63
2023-01-28T07:50:28.527Z,1.70
2023-01-28T07:52:57.221Z,0.85
2023-01-28T07:55:25.676Z,2.15
2023-01-28T07:57:55.991Z,0.63
2023-01-28T08:00:25.683Z,3.05
2023-01-28T08:02:58.033Z,5.35
2023-01-28T08:05:27.725Z,1.40
2023-01-28T08:07:55.850Z,4.82
2023-01-28T08:10:23.711Z,0.82
2023-01-28T08:12:55.708Z,3.05
2023-01-28T08:15:24.831Z,5.35
2023-01-28T08:17:56.299Z,3.47
2023-01-28T08:20:25.370Z,4.43
2023-01-28T08:22:53.292Z,3.28
2023-01-28T08:25:21.421Z,9.63
2023-01-28T08:27:49.516Z,11.43
2023-01-28T08:30:17.909Z,6.90
2023-01-28T08:32:45.841Z,6.20
2023-01-28T08:35:13.759Z,10.73
2023-01-28T08:37:41.541Z,13.30
2023-01-28T08:40:10.008Z,10.30
2023-01-28T08:42:37.993Z,10.38
2023-01-28T08:45:06.747Z,11.65
2023-01-28T08:47:37.250Z,9.27
2023-01-28T08:50:07.177Z,8.40
2023-01-28T08:52:34.997Z,4.32
2023-01-28T08:55:05.791Z,15.85
2023-01-28T08:57:33.610Z,9.20
2023-01-28T09:00:01.435Z,7.15
2023-01-28T09:02:32.139Z,11.90
2023-01-28T09:05:00.702Z,10.80
2023-01-28T09:07:28.736Z,8.13
2023-01-28T09:09:56.643Z,2.78
2023-01-28T09:12:24.595Z,5.30
2023-01-28T09:14:53.128Z,4.20
2023-01-28T09:17:21.711Z,2.70
2023-01-28T09:19:49.519Z,9.50
2023-01-28T09:22:17.581Z,12.07
2023-01-28T09:24:45.474Z,10.63
2023-01-28T09:27:13.831Z,17.58
2023-01-28T09:29:41.894Z,18.45
2023-01-28T09:32:10.010Z,16.85
2023-01-28T09:34:38.008Z,13.48
2023-01-28T09:37:05.785Z,8.48
2023-01-28T09:39:33.723Z,21.80
2023-01-28T09:42:13.666Z,15.10
2023-01-28T09:45:00.242Z,11.23
2023-01-28T09:47:42.102Z,10.65
2023-01-28T09:50:32.529Z,19.05
2023-01-28T09:53:28.685Z,17.17
2023-01-28T09:56:02.687Z,17.17
2023-01-28T09:58:30.590Z,12.18
2023-01-28T10:01:24.767Z,18.00
2023-01-28T10:04:23.522Z,12.82
2023-01-28T10:07:28.002Z,17.83
2023-01-28T10:10:14.076Z,16.33
2023-01-28T10:13:21.777Z,15.48
2023-01-28T10:15:59.441Z,11.60
2023-01-28T10:18:52.753Z,19.10
2023-01-28T10:21:31.765Z,17.80
2023-01-28T10:24:02.545Z,15.10
2023-01-28T10:26:36.206Z,22.98
2023-01-28T10:29:19.858Z,26.23
2023-01-28T10:32:17.278Z,15.70
2023-01-28T10:34:45.810Z,19.05
2023-01-28T10:37:17.079Z,27.58
2023-01-28T10:39:45.660Z,22.83
2023-01-28T10:42:39.375Z,19.33
2023-01-28T10:45:21.736Z,24.10
2023-01-28T10:47:53.392Z,22.75
2023-01-28T10:50:29.541Z,21.65
2023-01-28T10:53:02.786Z,14.77
2023-01-28T10:55:50.520Z,22.02
2023-01-28T10:58:32.583Z,12.60
2023-01-28T11:01:08.055Z,17.35
2023-01-28T11:03:36.131Z,17.02
2023-01-28T11:06:04.314Z,17.77
2023-01-28T11:08:42.714Z,12.68
2023-01-28T11:11:15.892Z,12.73
2023-01-28T11:13:54.594Z,22.77
2023-01-28T11:16:22.925Z,13.82
2023-01-28T11:18:55.949Z,29.30
2023-01-28T11:21:29.204Z,20.13
2023-01-28T11:24:30.373Z,28.85
2023-01-28T11:26:59.638Z,16.15
2023-01-28T11:29:32.086Z,67.15
2023-01-28T11:32:00.751Z,33.13
2023-01-28T11:34:34.662Z,35.13
2023-01-28T11:37:06.055Z,29.83
2023-01-28T11:39:33.939Z,30.70
2023-01-28T11:42:13.596Z,28.77
2023-01-28T11:44:41.505Z,34.63
2023-01-28T11:47:39.936Z,28.55
2023-01-28T11:50:13.494Z,36.20
2023-01-28T11:53:05.938Z,19.45
2023-01-28T11:56:12.265Z,17.75
2023-01-28T11:58:59.893Z,23.52
2023-01-28T12:01:49.152Z,18.50
2023-01-28T12:04:41.876Z,17.88
2023-01-28T12:07:25.352Z,18.55
2023-01-28T12:10:02.150Z,19.90
2023-01-28T12:12:51.834Z,17.63
2023-01-28T12:15:25.862Z,16.02
2023-01-28T12:18:23.077Z,10.07
2023-01-28T12:21:10.968Z,14.55
2023-01-28T12:23:52.329Z,11.07
2023-01-28T12:26:47.107Z,8.52
2023-01-28T12:29:19.237Z,8.70
2023-01-28T12:31:56.636Z,15.45
2023-01-28T12:35:00.574Z,22.30
2023-01-28T12:38:03.254Z,26.95
2023-01-28T12:41:12.699Z,19.80
2023-01-28T12:44:02.807Z,26.63
2023-01-28T12:46:41.565Z,25.05
2023-01-28T12:49:12.211Z,26.27
2023-01-28T12:51:54.123Z,18.48
2023-01-28T12:54:29.169Z,26.13
2023-01-28T12:59:44.793Z,19.13
2023-01-28T13:02:12.583Z,23.80
2023-01-28T13:05:08.375Z,15.82
2023-01-28T13:07:39.875Z,13.32
2023-01-28T13:10:16.925Z,15.70
2023-01-28T13:12:45.867Z,11.05
2023-01-28T13:15:16.216Z,14.68
2023-01-28T13:18:05.905Z,12.98
2023-01-28T13:20:55.568Z,13.98
2023-01-28T13:23:37.338Z,17.05
2023-01-28T13:26:23.073Z,16.73
2023-01-28T13:28:53.739Z,19.83
2023-01-28T13:31:24.191Z,9.23
2023-01-28T13:33:54.949Z,15.05
2023-01-28T13:36:29.918Z,11.80
2023-01-28T13:39:16.281Z,9.30
2023-01-28T13:41:53.148Z,7.70
2023-01-28T13:44:31.952Z,10.75
2023-01-28T13:47:16.133Z,5.70
2023-01-28T13:49:49.947Z,8.50
2023-01-28T13:52:33.700Z,15.63
2023-01-28T13:55:04.358Z,11.43
2023-01-28T13:57:57.360Z,21.48
2023-01-28T14:00:51.880Z,19.40
2023-01-28T14:03:46.847Z,18.30
2023-01-28T14:06:33.324Z,20.50
2023-01-28T14:09:22.057Z,15.88
2023-01-28T14:12:11.835Z,17.90
2023-01-28T14:15:21.533Z,12.40
2023-01-28T14:17:55.729Z,16.75
2023-01-28T14:20:33.312Z,27.90
2023-01-28T14:23:04.170Z,30.88
2023-01-28T14:25:43.396Z,25.63
2023-01-28T14:28:18.013Z,22.38
2023-01-28T14:31:01.781Z,18.52
2023-01-28T14:33:29.740Z,35.50
2023-01-28T14:35:58.274Z,34.45
2023-01-28T14:38:26.015Z,28.17
2023-01-28T14:40:55.121Z,14.88
2023-01-28T14:43:25.605Z,20.50
2023-01-28T14:46:08.965Z,24.50
2023-01-28T14:48:45.862Z,29.80
2023-01-28T14:51:19.662Z,24.17
2023-01-28T14:54:05.987Z,23.13
2023-01-28T14:56:45.766Z,19.73
2023-01-28T14:59:25.370Z,21.85
2023-01-28T15:01:58.007Z,20.50
2023-01-28T15:04:31.076Z,11.75
2023-01-28T15:07:38.994Z,19.08
2023-01-28T15:10:16.144Z,14.25
2023-01-28T15:12:51.564Z,10.55
2023-01-28T15:15:25.749Z,17.92
2023-01-28T15:17:54.564Z,14.83
2023-01-28T15:20:24.788Z,17.42
2023-01-28T15:22:53.680Z,32.35
2023-01-28T15:25:23.414Z,25.20
2023-01-28T15:27:52.835Z,16.17
2023-01-28T15:30:26.743Z,23.08
2023-01-28T15:33:20.670Z,21.88
2023-01-28T15:35:56.158Z,22.23
2023-01-28T15:38:26.217Z,15.77
2023-01-28T15:40:59.887Z,18.33
2023-01-28T15:43:33.277Z,14.38
2023-01-28T15:46:04.287Z,19.27
2023-01-28T15:48:33.923Z,21.15
2023-01-28T15:51:04.670Z,21.77
2023-01-28T15:53:42.349Z,28.50
2023-01-28T15:56:12.091Z,19.45
2023-01-28T15:58:43.031Z,29.80
2023-01-28T16:01:11.703Z,32.08
2023-01-28T16:03:42.147Z,22.45
2023-01-28T16:06:22.211Z,21.05
2023-01-28T16:08:59.135Z,25.58
2023-01-28T16:11:41.871Z,30.15
2023-01-28T16:14:27.913Z,23.70
2023-01-28T16:16:56.653Z,32.95
2023-01-28T16:19:39.996Z,21.38
2023-01-28T16:22:09.035Z,20.08
2023-01-28T16:24:37.162Z,28.50
2023-01-28T16:27:21.697Z,25.45
2023-01-28T16:29:49.420Z,31.70
2023-01-28T16:32:30.869Z,36.78
2023-01-28T16:35:02.916Z,41.17
2023-01-28T16:37:30.893Z,36.92
2023-01-28T16:40:00.405Z,32.88
2023-01-28T16:42:31.012Z,40.42
2023-01-28T16:44:58.953Z,34.05
2023-01-28T16:47:29.397Z,35.10
2023-01-28T16:49:57.402Z,25.45
2023-01-28T16:52:25.301Z,31.48
2023-01-28T16:54:53.108Z,24.98
2023-01-28T16:57:22.371Z,22.00
2023-01-28T16:59:50.293Z,22.05
2023-01-28T17:02:18.213Z,23.60
2023-01-28T17:04:46.120Z,29.50
2023-01-28T17:07:13.922Z,25.55
2023-01-28T17:09:41.779Z,25.10
2023-01-28T17:12:09.728Z,24.75
2023-01-28T17:14:39.330Z,29.13
2023-01-28T17:17:07.399Z,30.00
2023-01-28T17:19:35.432Z,30.05
2023-01-28T17:22:03.251Z,40.33
2023-01-28T17:24:31.211Z,27.08
2023-01-28T17:26:59.408Z,30.75
2023-01-28T17:29:27.356Z,31.52
2023-01-28T17:31:55.366Z,30.58
2023-01-28T17:34:23.264Z,49.15
2023-01-28T17:36:53.599Z,56.10
2023-01-28T17:39:21.696Z,68.60
2023-01-28T17:41:52.356Z,74.97
2023-01-28T17:44:20.680Z,55.45
2023-01-28T17:46:48.591Z,58.33
2023-01-28T17:49:16.377Z,49.63
2023-01-28T17:51:44.888Z,53.15
2023-01-28T17:54:12.792Z,52.15
2023-01-28T17:56:40.534Z,50.17
2023-01-28T17:59:09.347Z,40.88
2023-01-28T18:01:37.477Z,43.67
2023-01-28T18:04:07.806Z,37.47
2023-01-28T18:06:36.487Z,34.03
2023-01-28T18:09:05.327Z,31.00
2023-01-28T18:11:33.251Z,39.85
2023-01-28T18:14:01.215Z,29.70
2023-01-28T18:16:29.056Z,31.67
2023-01-28T18:18:56.771Z,27.13
2023-01-28T18:21:53.823Z,29.48
2023-01-28T18:24:26.197Z,24.20
2023-01-28T18:27:02.565Z,20.13
2023-01-28T18:29:31.750Z,25.23
2023-01-28T18:32:00.626Z,20.00
2023-01-28T18:34:31.763Z,20.75
2023-01-28T18:37:03.771Z,22.02
2023-01-28T18:39:31.597Z,21.30
2023-01-28T18:42:02.874Z,20.88
2023-01-28T18:44:32.069Z,19.70
2023-01-28T18:47:00.030Z,19.60
2023-01-28T18:49:27.785Z,20.10
2023-01-28T18:51:55.678Z,19.95
2023-01-28T18:54:23.990Z,17.48
2023-01-28T18:56:51.857Z,16.30
2023-01-28T18:59:19.859Z,18.10
2023-01-28T19:01:48.152Z,16.77
2023-01-28T19:04:16.651Z,15.80
2023-01-28T19:06:45.194Z,12.18
2023-01-28T19:09:17.487Z,14.93
2023-01-28T19:11:46.259Z,19.13
2023-01-28T19:14:16.493Z,14.57
2023-01-28T19:16:44.850Z,12.38
2023-01-28T19:19:12.603Z,12.73
2023-01-28T19:21:41.277Z,10.98
2023-01-28T19:24:13.978Z,11.27
2023-01-28T19:26:46.191Z,9.05
2023-01-28T19:29:16.353Z,12.10
2023-01-28T19:31:48.877Z,10.93
2023-01-28T19:34:17.172Z,14.27
2023-01-28T19:36:45.425Z,12.45
2023-01-28T19:39:13.959Z,13.93
2023-01-28T19:41:42.092Z,23.02
2023-01-28T19:44:10.591Z,10.63
2023-01-28T19:46:38.390Z,12.35
2023-01-28T19:49:06.641Z,14.20
2023-01-28T19:51:34.527Z,15.25
2023-01-28T19:54:02.339Z,14.48
2023-01-28T19:56:30.770Z,9.20
2023-01-28T19:59:00.573Z,11.10
2023-01-28T20:01:30.606Z,12.52
2023-01-28T20:04:00.650Z,9.95
2023-01-28T20:06:32.568Z,21.45
2023-01-28T20:09:22.383Z,16.52
2023-01-28T20:11:50.308Z,12.88
2023-01-28T20:14:18.505Z,24.17
2023-01-28T20:16:46.540Z,15.63
2023-01-28T20:19:16.631Z,18.17
2023-01-28T20:21:47.540Z,16.25
2023-01-28T20:24:15.883Z,9.98
2023-01-28T20:26:45.353Z,19.88
2023-01-28T20:29:18.531Z,13.55
2023-01-28T20:31:54.722Z,14.00
2023-01-28T20:34:28.923Z,13.32
2023-01-28T20:36:56.726Z,14.60
2023-01-28T20:39:24.428Z,12.90
2023-01-28T20:41:52.277Z,12.95
2023-01-28T20:44:20.166Z,14.77
2023-01-28T20:46:47.974Z,18.13
2023-01-28T20:49:15.871Z,9.55
2023-01-28T20:51:44.366Z,9.18
2023-01-28T20:54:13.812Z,14.43
2023-01-28T20:56:41.867Z,14.73
2023-01-28T20:59:11.178Z,23.90
2023-01-28T21:01:39.129Z,26.27
2023-01-28T21:04:10.542Z,25.15
2023-01-28T21:06:38.686Z,31.98
2023-01-28T21:09:06.928Z,33.95
2023-01-28T21:11:34.949Z,34.78
2023-01-28T21:14:02.884Z,37.65
2023-01-28T21:16:30.767Z,34.67
2023-01-28T21:18:58.700Z,37.60
2023-01-28T21:21:28.271Z,40.35
2023-01-28T21:23:58.975Z,33.50
2023-01-28T21:26:27.582Z,35.47
2023-01-28T21:28:58.422Z,29.13
2023-01-28T21:31:29.869Z,23.48
2023-01-28T21:33:58.987Z,27.23
2023-01-28T21:36:27.315Z,27.83
2023-01-28T21:38:57.593Z,23.70
2023-01-28T21:41:25.976Z,23.73
2023-01-28T21:43:55.258Z,20.73
2023-01-28T21:46:24.723Z,21.38
2023-01-28T21:49:00.605Z,21.60
2023-01-28T21:51:46.456Z,23.20
2023-01-28T21:54:19.479Z,21.20
2023-01-28T21:56:48.910Z,25.15
2023-01-28T21:59:30.822Z,17.17
2023-01-28T22:02:03.402Z,18.48
2023-01-28T22:04:36.893Z,23.65
2023-01-28T22:07:07.336Z,20.10
2023-01-28T22:09:35.809Z,18.20
2023-01-28T22:12:05.211Z,17.08
2023-01-28T22:14:33.261Z,18.27
2023-01-28T22:17:04.042Z,14.23
2023-01-28T22:19:31.882Z,15.02
2023-01-28T22:22:00.137Z,19.92
2023-01-28T22:24:31.709Z,12.75
2023-01-28T22:26:59.984Z,14.45
2023-01-28T22:29:27.797Z,11.15
2023-01-28T22:31:56.237Z,9.38
2023-01-28T22:34:24.408Z,11.68
2023-01-28T22:36:52.591Z,17.98
2023-01-28T22:39:23.441Z,14.43
2023-01-28T22:41:51.089Z,15.90
2023-01-28T22:44:20.148Z,21.58
2023-01-28T22:46:50.859Z,24.98
2023-01-28T22:49:18.842Z,21.55
2023-01-28T22:51:46.823Z,23.60
2023-01-28T22:54:15.144Z,23.10
2023-01-28T22:56:43.126Z,22.98
2023-01-28T22:59:11.945Z,25.42
2023-01-28T23:01:40.579Z,24.90
2023-01-28T23:04:12.452Z,28.13
2023-01-28T23:06:40.384Z,24.45
2023-01-28T23:09:08.142Z,29.95
2023-01-28T23:11:36.065Z,25.02
2023-01-28T23:14:26.410Z,24.10
2023-01-28T23:17:12.595Z,23.90
2023-01-28T23:19:58.701Z,20.08
2023-01-28T23:22:48.996Z,19.80
2023-01-28T23:25:17.020Z,20.60
2023-01-28T23:27:45.212Z,17.90
2023-01-28T23:30:14.807Z,18.75
2023-01-28T23:32:49.652Z,16.88
2023-01-28T23:35:19.331Z,14.48
2023-01-28T23:37:47.959Z,12.30
2023-01-28T23:40:17.067Z,12.15
2023-01-28T23:42:51.831Z,11.52
2023-01-28T23:45:20.191Z,12.73
2023-01-28T23:47:48.640Z,13.23
2023-01-28T23:50:17.062Z,9.75
2023-01-28T23:52:44.996Z,9.10
2023-01-28T23:55:12.847Z,11.95
2023-01-28T23:57:41.090Z,8.45
